sensor_id;sensor_type;location;lat;lon;timestamp;pressure;altitude;pressure_sealevel;temperature;humidity
11053;BME280;55230;42.602;23.470;2024-02-26T00:00:11;93090.25;;;7.68;87.12
11053;BME280;55230;42.602;23.470;2024-02-26T00:02:37;93081.91;;;7.75;85.99
11053;BME280;55230;42.602;23.470;2024-02-26T00:05:06;93083.75;;;7.75;86.36
11053;BME280;55230;42.602;23.470;2024-02-26T00:07:34;93086.81;;;7.80;85.64
11053;BME280;55230;42.602;23.470;2024-02-26T00:09:59;93087.66;;;7.84;86.09
11053;BME280;55230;42.602;23.470;2024-02-26T00:12:25;93091.56;;;7.78;85.61
11053;BME280;55230;42.602;23.470;2024-02-26T00:15:15;93088.81;;;7.87;85.39
11053;BME280;55230;42.602;23.470;2024-02-26T00:17:40;93082.63;;;7.91;85.83
11053;BME280;55230;42.602;23.470;2024-02-26T00:20:06;93083.38;;;7.92;85.70
11053;BME280;55230;42.602;23.470;2024-02-26T00:22:35;93080.13;;;7.95;86.83
11053;BME280;55230;42.602;23.470;2024-02-26T00:25:00;93077.81;;;7.90;86.70
11053;BME280;55230;42.602;23.470;2024-02-26T00:27:26;93076.34;;;8.08;84.87
11053;BME280;55230;42.602;23.470;2024-02-26T00:29:51;93067.47;;;8.05;85.05
11053;BME280;55230;42.602;23.470;2024-02-26T00:32:17;93076.16;;;7.97;86.06
11053;BME280;55230;42.602;23.470;2024-02-26T00:34:42;93069.50;;;7.96;86.03
11053;BME280;55230;42.602;23.470;2024-02-26T00:37:07;93059.78;;;7.70;86.04
11053;BME280;55230;42.602;23.470;2024-02-26T00:39:33;93066.06;;;7.73;86.49
11053;BME280;55230;42.602;23.470;2024-02-26T00:41:58;93056.25;;;7.79;86.71
11053;BME280;55230;42.602;23.470;2024-02-26T00:44:24;93061.06;;;7.80;86.07
11053;BME280;55230;42.602;23.470;2024-02-26T00:46:49;93059.25;;;7.81;85.46
11053;BME280;55230;42.602;23.470;2024-02-26T00:49:14;93061.31;;;7.75;86.08
11053;BME280;55230;42.602;23.470;2024-02-26T00:51:40;93065.25;;;7.69;85.29
11053;BME280;55230;42.602;23.470;2024-02-26T00:54:05;93065.22;;;7.34;87.73
11053;BME280;55230;42.602;23.470;2024-02-26T00:56:31;93063.28;;;6.99;88.80
11053;BME280;55230;42.602;23.470;2024-02-26T00:58:56;93055.50;;;7.12;88.86
11053;BME280;55230;42.602;23.470;2024-02-26T01:01:21;93046.19;;;7.23;87.81
11053;BME280;55230;42.602;23.470;2024-02-26T01:03:47;93055.72;;;7.38;87.33
11053;BME280;55230;42.602;23.470;2024-02-26T01:06:12;93054.31;;;7.41;87.33
11053;BME280;55230;42.602;23.470;2024-02-26T01:08:38;93048.41;;;7.40;87.58
11053;BME280;55230;42.602;23.470;2024-02-26T01:11:04;93044.34;;;7.39;86.91
11053;BME280;55230;42.602;23.470;2024-02-26T01:13:29;93033.31;;;7.39;87.54
11053;BME280;55230;42.602;23.470;2024-02-26T01:15:55;93042.84;;;7.38;86.67
11053;BME280;55230;42.602;23.470;2024-02-26T01:18:20;93040.88;;;7.47;86.22
11053;BME280;55230;42.602;23.470;2024-02-26T01:20:46;93040.38;;;7.26;87.25
11053;BME280;55230;42.602;23.470;2024-02-26T01:23:12;93046.69;;;7.28;86.93
11053;BME280;55230;42.602;23.470;2024-02-26T01:25:38;93040.13;;;7.31;86.64
11053;BME280;55230;42.602;23.470;2024-02-26T01:28:04;93028.69;;;7.28;86.17
11053;BME280;55230;42.602;23.470;2024-02-26T01:30:30;93041.63;;;7.32;86.84
11053;BME280;55230;42.602;23.470;2024-02-26T01:32:56;93031.81;;;7.22;87.09
11053;BME280;55230;42.602;23.470;2024-02-26T01:35:21;93040.03;;;7.27;86.46
11053;BME280;55230;42.602;23.470;2024-02-26T01:37:46;93038.56;;;7.26;87.50
11053;BME280;55230;42.602;23.470;2024-02-26T01:40:12;93032.66;;;7.26;87.57
11053;BME280;55230;42.602;23.470;2024-02-26T01:42:43;93029.75;;;7.27;86.64
11053;BME280;55230;42.602;23.470;2024-02-26T01:45:13;93025.03;;;7.14;87.00
11053;BME280;55230;42.602;23.470;2024-02-26T01:47:41;93031.81;;;7.22;86.06
11053;BME280;55230;42.602;23.470;2024-02-26T01:50:07;93015.59;;;7.18;86.61
11053;BME280;55230;42.602;23.470;2024-02-26T01:52:33;93017.22;;;7.26;87.23
11053;BME280;55230;42.602;23.470;2024-02-26T01:54:59;93015.91;;;7.16;86.01
11053;BME280;55230;42.602;23.470;2024-02-26T01:57:27;93016.38;;;7.22;85.46
11053;BME280;55230;42.602;23.470;2024-02-26T01:59:53;93009.03;;;7.20;84.37
11053;BME280;55230;42.602;23.470;2024-02-26T02:02:24;93019.47;;;7.12;84.96
11053;BME280;55230;42.602;23.470;2024-02-26T02:04:51;93018.31;;;7.25;85.06
11053;BME280;55230;42.602;23.470;2024-02-26T02:07:18;93016.25;;;7.15;86.86
11053;BME280;55230;42.602;23.470;2024-02-26T02:09:44;93011.59;;;7.05;86.45
11053;BME280;55230;42.602;23.470;2024-02-26T02:12:09;93015.06;;;7.12;86.11
11053;BME280;55230;42.602;23.470;2024-02-26T02:14:35;93012.69;;;7.04;85.89
11053;BME280;55230;42.602;23.470;2024-02-26T02:17:01;93015.41;;;7.11;86.10
11053;BME280;55230;42.602;23.470;2024-02-26T02:19:26;93014.56;;;7.07;85.62
11053;BME280;55230;42.602;23.470;2024-02-26T02:21:52;93016.81;;;7.08;86.26
11053;BME280;55230;42.602;23.470;2024-02-26T02:24:17;93018.41;;;7.13;85.71
11053;BME280;55230;42.602;23.470;2024-02-26T02:26:43;93014.75;;;7.14;85.39
11053;BME280;55230;42.602;23.470;2024-02-26T02:29:14;93013.41;;;7.04;85.27
11053;BME280;55230;42.602;23.470;2024-02-26T02:31:39;93012.50;;;6.96;85.56
11053;BME280;55230;42.602;23.470;2024-02-26T02:34:05;93013.78;;;7.03;85.21
11053;BME280;55230;42.602;23.470;2024-02-26T02:36:31;93024.06;;;7.03;85.80
11053;BME280;55230;42.602;23.470;2024-02-26T02:38:56;93016.56;;;6.97;85.87
11053;BME280;55230;42.602;23.470;2024-02-26T02:41:21;93028.19;;;7.07;84.88
11053;BME280;55230;42.602;23.470;2024-02-26T02:43:47;93021.97;;;7.08;85.12
11053;BME280;55230;42.602;23.470;2024-02-26T02:46:12;93017.97;;;7.11;85.89
11053;BME280;55230;42.602;23.470;2024-02-26T02:48:38;93026.13;;;7.13;85.47
11053;BME280;55230;42.602;23.470;2024-02-26T02:51:04;93021.38;;;7.15;85.04
11053;BME280;55230;42.602;23.470;2024-02-26T02:53:29;93021.38;;;7.15;85.76
11053;BME280;55230;42.602;23.470;2024-02-26T02:55:55;93022.63;;;7.21;85.26
11053;BME280;55230;42.602;23.470;2024-02-26T02:58:20;93029.63;;;7.20;85.40
11053;BME280;55230;42.602;23.470;2024-02-26T03:00:46;93019.78;;;7.26;84.78
11053;BME280;55230;42.602;23.470;2024-02-26T03:03:11;93030.25;;;7.33;84.56
11053;BME280;55230;42.602;23.470;2024-02-26T03:05:37;93021.28;;;7.27;84.36
11053;BME280;55230;42.602;23.470;2024-02-26T03:08:02;93029.84;;;7.31;85.34
11053;BME280;55230;42.602;23.470;2024-02-26T03:10:28;93033.16;;;7.31;84.60
11053;BME280;55230;42.602;23.470;2024-02-26T03:12:53;93031.66;;;7.30;84.44
11053;BME280;55230;42.602;23.470;2024-02-26T03:15:19;93037.22;;;7.32;85.09
11053;BME280;55230;42.602;23.470;2024-02-26T03:17:44;93034.66;;;7.32;84.52
11053;BME280;55230;42.602;23.470;2024-02-26T03:20:10;93031.81;;;7.22;84.89
11053;BME280;55230;42.602;23.470;2024-02-26T03:22:35;93031.34;;;7.32;85.07
11053;BME280;55230;42.602;23.470;2024-02-26T03:25:01;93021.47;;;7.34;85.60
11053;BME280;55230;42.602;23.470;2024-02-26T03:27:26;93019.13;;;7.29;84.45
11053;BME280;55230;42.602;23.470;2024-02-26T03:29:52;93011.59;;;7.20;85.39
11053;BME280;55230;42.602;23.470;2024-02-26T03:32:18;93022.13;;;7.31;85.53
11053;BME280;55230;42.602;23.470;2024-02-26T03:34:43;93016.66;;;7.32;84.83
11053;BME280;55230;42.602;23.470;2024-02-26T03:37:08;93011.50;;;7.32;84.37
11053;BME280;55230;42.602;23.470;2024-02-26T03:39:36;93018.47;;;7.32;84.53
11053;BME280;55230;42.602;23.470;2024-02-26T03:42:01;93014.06;;;7.32;84.80
11053;BME280;55230;42.602;23.470;2024-02-26T03:44:27;93005.53;;;7.28;84.29
11053;BME280;55230;42.602;23.470;2024-02-26T03:46:52;93017.22;;;7.26;84.92
11053;BME280;55230;42.602;23.470;2024-02-26T03:49:18;93016.06;;;7.23;84.58
11053;BME280;55230;42.602;23.470;2024-02-26T03:51:43;92999.47;;;7.21;84.37
11053;BME280;55230;42.602;23.470;2024-02-26T03:54:08;93001.69;;;7.22;83.87
11053;BME280;55230;42.602;23.470;2024-02-26T03:56:34;93013.91;;;7.25;84.01
11053;BME280;55230;42.602;23.470;2024-02-26T03:58:59;93021.53;;;7.22;84.82
11053;BME280;55230;42.602;23.470;2024-02-26T04:01:27;93006.78;;;7.19;84.26
11053;BME280;55230;42.602;23.470;2024-02-26T04:03:53;93007.69;;;7.26;83.74
11053;BME280;55230;42.602;23.470;2024-02-26T04:06:19;93014.91;;;7.21;83.70
11053;BME280;55230;42.602;23.470;2024-02-26T04:08:46;93002.22;;;7.12;84.47
11053;BME280;55230;42.602;23.470;2024-02-26T04:11:12;93008.09;;;7.13;84.10
11053;BME280;55230;42.602;23.470;2024-02-26T04:13:37;92995.56;;;7.11;83.78
11053;BME280;55230;42.602;23.470;2024-02-26T04:16:06;92993.50;;;7.17;83.49
11053;BME280;55230;42.602;23.470;2024-02-26T04:18:32;93001.97;;;7.17;83.58
11053;BME280;55230;42.602;23.470;2024-02-26T04:20:57;92995.41;;;7.04;83.88
11053;BME280;55230;42.602;23.470;2024-02-26T04:23:23;92991.84;;;7.09;83.33
11053;BME280;55230;42.602;23.470;2024-02-26T04:25:49;92987.53;;;7.13;83.89
11053;BME280;55230;42.602;23.470;2024-02-26T04:28:14;92981.13;;;7.07;83.88
11053;BME280;55230;42.602;23.470;2024-02-26T04:30:40;92992.50;;;7.06;83.21
11053;BME280;55230;42.602;23.470;2024-02-26T04:33:06;92989.13;;;7.02;83.50
11053;BME280;55230;42.602;23.470;2024-02-26T04:35:31;92985.47;;;6.87;84.04
11053;BME280;55230;42.602;23.470;2024-02-26T04:37:57;92985.13;;;6.88;83.45
11053;BME280;55230;42.602;23.470;2024-02-26T04:40:23;92965.31;;;6.73;83.26
11053;BME280;55230;42.602;23.470;2024-02-26T04:42:49;92985.41;;;6.83;83.80
11053;BME280;55230;42.602;23.470;2024-02-26T04:45:14;92988.63;;;6.80;84.10
11053;BME280;55230;42.602;23.470;2024-02-26T04:47:40;93004.56;;;6.86;83.75
11053;BME280;55230;42.602;23.470;2024-02-26T04:50:06;92995.41;;;6.73;83.91
11053;BME280;55230;42.602;23.470;2024-02-26T04:52:31;92990.34;;;6.76;83.75
11053;BME280;55230;42.602;23.470;2024-02-26T04:54:57;93006.03;;;6.27;86.80
11053;BME280;55230;42.602;23.470;2024-02-26T04:57:22;93006.50;;;6.45;86.26
11053;BME280;55230;42.602;23.470;2024-02-26T04:59:47;93002.09;;;6.46;85.90
11053;BME280;55230;42.602;23.470;2024-02-26T05:02:13;93017.28;;;6.51;86.01
11053;BME280;55230;42.602;23.470;2024-02-26T05:04:39;93015.69;;;6.46;86.71
11053;BME280;55230;42.602;23.470;2024-02-26T05:07:04;93016.13;;;6.48;86.24
11053;BME280;55230;42.602;23.470;2024-02-26T05:09:30;93019.41;;;6.33;86.45
11053;BME280;55230;42.602;23.470;2024-02-26T05:11:55;93025.34;;;6.37;86.58
11053;BME280;55230;42.602;23.470;2024-02-26T05:14:21;93026.69;;;6.31;86.40
11053;BME280;55230;42.602;23.470;2024-02-26T05:16:47;93027.09;;;6.33;87.00
11053;BME280;55230;42.602;23.470;2024-02-26T05:19:12;93022.22;;;6.44;86.45
11053;BME280;55230;42.602;23.470;2024-02-26T05:21:38;93030.13;;;6.51;85.69
11053;BME280;55230;42.602;23.470;2024-02-26T05:24:03;93028.25;;;6.63;85.19
11053;BME280;55230;42.602;23.470;2024-02-26T05:26:29;93020.44;;;6.60;84.98
11053;BME280;55230;42.602;23.470;2024-02-26T05:28:54;93029.00;;;6.64;85.18
11053;BME280;55230;42.602;23.470;2024-02-26T05:31:24;93025.13;;;6.70;84.85
11053;BME280;55230;42.602;23.470;2024-02-26T05:33:50;93025.03;;;6.82;84.32
11053;BME280;55230;42.602;23.470;2024-02-26T05:36:21;93044.09;;;6.65;86.15
11053;BME280;55230;42.602;23.470;2024-02-26T05:38:48;93036.31;;;6.78;84.70
11053;BME280;55230;42.602;23.470;2024-02-26T05:41:17;93044.44;;;6.80;84.95
11053;BME280;55230;42.602;23.470;2024-02-26T05:43:51;93040.72;;;6.93;84.73
11053;BME280;55230;42.602;23.470;2024-02-26T05:46:17;93043.94;;;7.06;84.42
11053;BME280;55230;42.602;23.470;2024-02-26T05:48:43;93042.72;;;7.15;83.27
11053;BME280;55230;42.602;23.470;2024-02-26T05:51:09;93055.16;;;7.29;83.13
11053;BME280;55230;42.602;23.470;2024-02-26T05:53:34;93047.66;;;7.40;83.65
11053;BME280;55230;42.602;23.470;2024-02-26T05:56:00;93057.13;;;7.51;82.30
11053;BME280;55230;42.602;23.470;2024-02-26T05:58:25;93055.13;;;7.60;82.75
11053;BME280;55230;42.602;23.470;2024-02-26T06:00:50;93057.13;;;7.67;82.04
11053;BME280;55230;42.602;23.470;2024-02-26T06:03:16;93060.84;;;7.69;81.19
11053;BME280;55230;42.602;23.470;2024-02-26T06:05:42;93066.63;;;7.82;81.21
11053;BME280;55230;42.602;23.470;2024-02-26T06:08:08;93073.69;;;7.85;79.91
11053;BME280;55230;42.602;23.470;2024-02-26T06:10:33;93072.41;;;7.95;78.68
11053;BME280;55230;42.602;23.470;2024-02-26T06:12:59;93063.94;;;7.94;78.54
11053;BME280;55230;42.602;23.470;2024-02-26T06:15:24;93068.91;;;8.03;78.15
11053;BME280;55230;42.602;23.470;2024-02-26T06:17:49;93068.50;;;8.01;79.65
11053;BME280;55230;42.602;23.470;2024-02-26T06:20:15;93064.31;;;8.12;78.40
11053;BME280;55230;42.602;23.470;2024-02-26T06:22:41;93074.47;;;8.24;77.85
11053;BME280;55230;42.602;23.470;2024-02-26T06:25:07;93071.63;;;8.29;78.75
11053;BME280;55230;42.602;23.470;2024-02-26T06:27:32;93065.41;;;8.30;75.74
11053;BME280;55230;42.602;23.470;2024-02-26T06:29:58;93070.13;;;8.28;77.45
11053;BME280;55230;42.602;23.470;2024-02-26T06:32:23;93069.31;;;8.24;77.62
11053;BME280;55230;42.602;23.470;2024-02-26T06:34:49;93064.84;;;8.02;79.64
11053;BME280;55230;42.602;23.470;2024-02-26T06:37:14;93064.69;;;7.95;79.25
11053;BME280;55230;42.602;23.470;2024-02-26T06:39:39;93067.34;;;7.98;78.93
11053;BME280;55230;42.602;23.470;2024-02-26T06:42:06;93072.69;;;8.09;78.52
11053;BME280;55230;42.602;23.470;2024-02-26T06:44:31;93064.22;;;8.09;79.48
11053;BME280;55230;42.602;23.470;2024-02-26T06:46:59;93072.19;;;8.19;78.55
11053;BME280;55230;42.602;23.470;2024-02-26T06:49:26;93073.94;;;8.15;78.68
11053;BME280;55230;42.602;23.470;2024-02-26T06:51:51;93067.22;;;8.30;79.96
11053;BME280;55230;42.602;23.470;2024-02-26T06:54:16;93072.94;;;8.20;78.66
11053;BME280;55230;42.602;23.470;2024-02-26T06:56:42;93071.22;;;8.27;78.86
11053;BME280;55230;42.602;23.470;2024-02-26T06:59:07;93069.56;;;8.35;77.85
11053;BME280;55230;42.602;23.470;2024-02-26T07:01:33;93069.75;;;8.46;77.31
11053;BME280;55230;42.602;23.470;2024-02-26T07:03:58;93069.94;;;8.56;77.32
11053;BME280;55230;42.602;23.470;2024-02-26T07:06:24;93075.84;;;8.57;77.74
11053;BME280;55230;42.602;23.470;2024-02-26T07:08:49;93086.34;;;8.29;79.24
11053;BME280;55230;42.602;23.470;2024-02-26T07:11:14;93083.13;;;8.51;77.35
11053;BME280;55230;42.602;23.470;2024-02-26T07:13:40;93087.50;;;8.31;78.98
11053;BME280;55230;42.602;23.470;2024-02-26T07:16:05;93090.03;;;8.66;78.14
11053;BME280;55230;42.602;23.470;2024-02-26T07:18:31;93092.19;;;9.03;77.38
11053;BME280;55230;42.602;23.470;2024-02-26T07:20:56;93083.41;;;8.88;76.01
11053;BME280;55230;42.602;23.470;2024-02-26T07:23:21;93098.13;;;8.65;78.79
11053;BME280;55230;42.602;23.470;2024-02-26T07:25:47;93091.34;;;8.37;79.66
11053;BME280;55230;42.602;23.470;2024-02-26T07:28:14;93091.06;;;8.62;78.83
11053;BME280;55230;42.602;23.470;2024-02-26T07:30:39;93094.88;;;8.68;77.84
11053;BME280;55230;42.602;23.470;2024-02-26T07:33:05;93083.78;;;8.87;77.18
11053;BME280;55230;42.602;23.470;2024-02-26T07:35:31;93090.63;;;8.79;77.33
11053;BME280;55230;42.602;23.470;2024-02-26T07:37:58;93089.00;;;8.90;77.08
11053;BME280;55230;42.602;23.470;2024-02-26T07:40:24;93092.22;;;9.06;77.03
11053;BME280;55230;42.602;23.470;2024-02-26T07:42:49;93091.13;;;9.07;76.55
11053;BME280;55230;42.602;23.470;2024-02-26T07:45:14;93098.00;;;9.23;76.59
11053;BME280;55230;42.602;23.470;2024-02-26T07:47:40;93091.88;;;8.85;78.95
11053;BME280;55230;42.602;23.470;2024-02-26T07:50:07;93087.25;;;8.75;78.62
11053;BME280;55230;42.602;23.470;2024-02-26T07:52:33;93095.53;;;9.07;78.46
11053;BME280;55230;42.602;23.470;2024-02-26T07:54:59;93101.03;;;9.05;78.10
11053;BME280;55230;42.602;23.470;2024-02-26T07:57:26;93105.31;;;9.40;75.47
11053;BME280;55230;42.602;23.470;2024-02-26T07:59:51;93088.22;;;9.55;74.11
11053;BME280;55230;42.602;23.470;2024-02-26T08:02:17;93085.50;;;9.48;74.58
11053;BME280;55230;42.602;23.470;2024-02-26T08:04:42;93083.97;;;9.43;74.95
11053;BME280;55230;42.602;23.470;2024-02-26T08:07:07;93089.84;;;9.66;74.16
11053;BME280;55230;42.602;23.470;2024-02-26T08:09:33;93076.75;;;9.52;73.98
11053;BME280;55230;42.602;23.470;2024-02-26T08:11:58;93084.34;;;9.94;72.63
11053;BME280;55230;42.602;23.470;2024-02-26T08:14:24;93082.88;;;10.20;72.17
11053;BME280;55230;42.602;23.470;2024-02-26T08:16:49;93081.69;;;9.91;72.99
11053;BME280;55230;42.602;23.470;2024-02-26T08:19:14;93079.97;;;9.98;71.82
11053;BME280;55230;42.602;23.470;2024-02-26T08:21:41;93085.28;;;10.09;71.90
11053;BME280;55230;42.602;23.470;2024-02-26T08:24:06;93083.41;;;9.79;73.78
11053;BME280;55230;42.602;23.470;2024-02-26T08:26:32;93087.94;;;10.42;72.63
11053;BME280;55230;42.602;23.470;2024-02-26T08:28:57;93088.41;;;10.52;70.17
11053;BME280;55230;42.602;23.470;2024-02-26T08:31:23;93089.81;;;10.45;70.40
11053;BME280;55230;42.602;23.470;2024-02-26T08:33:48;93081.81;;;10.54;68.06
11053;BME280;55230;42.602;23.470;2024-02-26T08:36:14;93079.22;;;10.58;69.29
11053;BME280;55230;42.602;23.470;2024-02-26T08:38:39;93081.13;;;10.61;71.40
11053;BME280;55230;42.602;23.470;2024-02-26T08:41:05;93080.47;;;10.67;70.69
11053;BME280;55230;42.602;23.470;2024-02-26T08:43:30;93076.19;;;10.82;70.01
11053;BME280;55230;42.602;23.470;2024-02-26T08:45:57;93091.06;;;10.92;69.34
11053;BME280;55230;42.602;23.470;2024-02-26T08:48:22;93079.47;;;10.79;69.90
11053;BME280;55230;42.602;23.470;2024-02-26T08:50:47;93087.22;;;10.79;70.67
11053;BME280;55230;42.602;23.470;2024-02-26T08:53:13;93085.78;;;10.81;70.28
11053;BME280;55230;42.602;23.470;2024-02-26T08:55:38;93081.97;;;10.68;71.06
11053;BME280;55230;42.602;23.470;2024-02-26T08:58:04;93083.13;;;11.11;70.37
11053;BME280;55230;42.602;23.470;2024-02-26T09:00:29;93081.28;;;10.75;71.08
11053;BME280;55230;42.602;23.470;2024-02-26T09:02:54;93085.97;;;10.99;70.51
11053;BME280;55230;42.602;23.470;2024-02-26T09:05:20;93086.13;;;10.80;69.29
11053;BME280;55230;42.602;23.470;2024-02-26T09:07:45;93077.53;;;11.09;69.88
11053;BME280;55230;42.602;23.470;2024-02-26T09:10:11;93078.47;;;11.31;68.44
11053;BME280;55230;42.602;23.470;2024-02-26T09:12:37;93080.16;;;10.76;70.23
11053;BME280;55230;42.602;23.470;2024-02-26T09:15:03;93068.22;;;10.64;70.61
11053;BME280;55230;42.602;23.470;2024-02-26T09:17:29;93075.38;;;11.15;70.53
11053;BME280;55230;42.602;23.470;2024-02-26T09:19:54;93072.38;;;11.57;67.57
11053;BME280;55230;42.602;23.470;2024-02-26T09:22:21;93066.38;;;11.46;67.93
11053;BME280;55230;42.602;23.470;2024-02-26T09:24:46;93060.72;;;11.77;66.93
11053;BME280;55230;42.602;23.470;2024-02-26T09:27:12;93060.72;;;11.77;66.63
11053;BME280;55230;42.602;23.470;2024-02-26T09:29:37;93057.84;;;11.42;67.38
11053;BME280;55230;42.602;23.470;2024-02-26T09:32:03;93062.09;;;11.68;66.69
11053;BME280;55230;42.602;23.470;2024-02-26T09:34:28;93034.59;;;11.49;66.59
11053;BME280;55230;42.602;23.470;2024-02-26T09:36:54;93053.94;;;11.66;66.95
11053;BME280;55230;42.602;23.470;2024-02-26T09:39:19;93054.16;;;11.98;66.23
11053;BME280;55230;42.602;23.470;2024-02-26T09:41:47;93052.06;;;12.24;66.04
11053;BME280;55230;42.602;23.470;2024-02-26T09:44:20;93062.44;;;12.24;65.83
11053;BME280;55230;42.602;23.470;2024-02-26T09:46:47;93046.81;;;12.10;64.99
11053;BME280;55230;42.602;23.470;2024-02-26T09:49:15;93054.16;;;11.98;64.62
11053;BME280;55230;42.602;23.470;2024-02-26T09:51:40;93047.63;;;12.18;64.93
11053;BME280;55230;42.602;23.470;2024-02-26T09:54:07;93048.84;;;12.49;64.38
11053;BME280;55230;42.602;23.470;2024-02-26T09:56:36;93048.91;;;12.74;62.19
11053;BME280;55230;42.602;23.470;2024-02-26T09:59:03;93044.06;;;12.65;63.66
11053;BME280;55230;42.602;23.470;2024-02-26T10:01:30;93049.13;;;12.22;65.25
11053;BME280;55230;42.602;23.470;2024-02-26T10:03:59;93034.59;;;12.07;64.46
11053;BME280;55230;42.602;23.470;2024-02-26T10:06:27;93043.97;;;12.40;65.01
11053;BME280;55230;42.602;23.470;2024-02-26T10:08:54;93039.59;;;12.51;63.52
11053;BME280;55230;42.602;23.470;2024-02-26T10:11:22;93038.69;;;12.12;64.35
11053;BME280;55230;42.602;23.470;2024-02-26T10:13:47;93042.25;;;11.82;64.91
11053;BME280;55230;42.602;23.470;2024-02-26T10:16:13;93041.16;;;11.87;65.65
11053;BME280;55230;42.602;23.470;2024-02-26T10:18:48;93032.63;;;11.90;64.21
11053;BME280;55230;42.602;23.470;2024-02-26T10:21:16;93031.41;;;11.70;65.47
11053;BME280;55230;42.602;23.470;2024-02-26T10:23:43;93042.97;;;11.79;65.69
11053;BME280;55230;42.602;23.470;2024-02-26T10:26:10;93029.81;;;12.16;64.29
11053;BME280;55230;42.602;23.470;2024-02-26T10:28:37;93024.38;;;12.39;63.01
11053;BME280;55230;42.602;23.470;2024-02-26T10:31:02;93020.31;;;12.52;63.27
11053;BME280;55230;42.602;23.470;2024-02-26T10:33:28;93030.72;;;12.56;61.81
11053;BME280;55230;42.602;23.470;2024-02-26T10:35:54;93025.84;;;12.44;62.05
11053;BME280;55230;42.602;23.470;2024-02-26T10:38:19;93022.56;;;12.65;61.73
11053;BME280;55230;42.602;23.470;2024-02-26T10:40:46;93015.75;;;12.24;61.50
11053;BME280;55230;42.602;23.470;2024-02-26T10:43:12;93022.44;;;12.22;60.59
11053;BME280;55230;42.602;23.470;2024-02-26T10:45:40;93015.88;;;12.53;59.48
11053;BME280;55230;42.602;23.470;2024-02-26T10:48:14;93021.84;;;12.75;60.57
11053;BME280;55230;42.602;23.470;2024-02-26T10:50:40;93023.38;;;13.11;60.15
11053;BME280;55230;42.602;23.470;2024-02-26T10:53:13;93006.31;;;12.89;60.28
11053;BME280;55230;42.602;23.470;2024-02-26T10:55:42;93005.56;;;12.92;60.84
11053;BME280;55230;42.602;23.470;2024-02-26T10:58:12;92999.25;;;13.07;61.09
11053;BME280;55230;42.602;23.470;2024-02-26T11:00:38;92996.34;;;13.34;59.88
11053;BME280;55230;42.602;23.470;2024-02-26T11:03:04;93005.63;;;13.38;58.90
11053;BME280;55230;42.602;23.470;2024-02-26T11:05:32;92998.16;;;13.65;58.80
11053;BME280;55230;42.602;23.470;2024-02-26T11:08:00;93003.38;;;13.33;57.87
11053;BME280;55230;42.602;23.470;2024-02-26T11:10:26;93007.47;;;13.34;59.58
11053;BME280;55230;42.602;23.470;2024-02-26T11:12:55;93007.44;;;13.09;60.86
11053;BME280;55230;42.602;23.470;2024-02-26T11:15:23;93003.38;;;13.05;59.65
11053;BME280;55230;42.602;23.470;2024-02-26T11:17:51;92995.94;;;13.46;59.04
11053;BME280;55230;42.602;23.470;2024-02-26T11:20:17;92985.16;;;12.73;59.60
11053;BME280;55230;42.602;23.470;2024-02-26T11:22:44;92995.19;;;13.06;59.94
11053;BME280;55230;42.602;23.470;2024-02-26T11:25:10;92995.97;;;13.17;58.70
11053;BME280;55230;42.602;23.470;2024-02-26T11:27:46;92988.88;;;13.14;56.82
11053;BME280;55230;42.602;23.470;2024-02-26T11:30:15;92991.47;;;12.97;57.76
11053;BME280;55230;42.602;23.470;2024-02-26T11:32:46;93001.13;;;13.14;58.63
11053;BME280;55230;42.602;23.470;2024-02-26T11:35:12;92989.66;;;13.36;59.17
11053;BME280;55230;42.602;23.470;2024-02-26T11:37:41;92995.22;;;13.24;57.39
11053;BME280;55230;42.602;23.470;2024-02-26T11:40:14;92992.19;;;12.76;59.00
11053;BME280;55230;42.602;23.470;2024-02-26T11:42:47;92981.00;;;12.36;59.90
11053;BME280;55230;42.602;23.470;2024-02-26T11:48:03;92984.81;;;13.31;56.37
11053;BME280;55230;42.602;23.470;2024-02-26T11:50:36;92994.44;;;12.95;59.27
11053;BME280;55230;42.602;23.470;2024-02-26T11:55:48;92987.78;;;13.12;55.99
11053;BME280;55230;42.602;23.470;2024-02-26T11:58:33;92983.72;;;13.32;56.94
11053;BME280;55230;42.602;23.470;2024-02-26T12:00:59;92983.66;;;13.71;56.05
11053;BME280;55230;42.602;23.470;2024-02-26T12:03:24;92983.28;;;12.77;58.73
11053;BME280;55230;42.602;23.470;2024-02-26T12:05:51;92991.84;;;13.09;57.08
11053;BME280;55230;42.602;23.470;2024-02-26T12:08:17;92984.47;;;13.22;54.99
11053;BME280;55230;42.602;23.470;2024-02-26T12:10:45;92979.94;;;12.66;56.74
11053;BME280;55230;42.602;23.470;2024-02-26T12:13:12;92978.13;;;13.12;58.45
11053;BME280;55230;42.602;23.470;2024-02-26T12:15:58;92985.94;;;13.05;57.54
11053;BME280;55230;42.602;23.470;2024-02-26T12:18:24;92985.94;;;13.37;56.59
11053;BME280;55230;42.602;23.470;2024-02-26T12:21:03;92985.88;;;13.80;53.59
11053;BME280;55230;42.602;23.470;2024-02-26T12:23:29;92983.34;;;13.37;55.42
11053;BME280;55230;42.602;23.470;2024-02-26T12:25:59;92979.63;;;13.24;55.92
11053;BME280;55230;42.602;23.470;2024-02-26T12:28:31;92982.53;;;12.76;55.93
11053;BME280;55230;42.602;23.470;2024-02-26T12:30:56;92986.69;;;13.34;51.82
11053;BME280;55230;42.602;23.470;2024-02-26T12:33:25;92985.13;;;13.79;50.69
11053;BME280;55230;42.602;23.470;2024-02-26T12:35:52;92996.88;;;14.23;51.57
11053;BME280;55230;42.602;23.470;2024-02-26T12:38:17;92989.56;;;13.79;54.65
11053;BME280;55230;42.602;23.470;2024-02-26T12:40:44;92986.59;;;13.77;54.24
11053;BME280;55230;42.602;23.470;2024-02-26T12:43:09;92991.34;;;14.14;51.28
11053;BME280;55230;42.602;23.470;2024-02-26T12:45:40;92992.06;;;14.18;52.72
11053;BME280;55230;42.602;23.470;2024-02-26T12:48:06;92986.22;;;13.82;51.14
11053;BME280;55230;42.602;23.470;2024-02-26T12:50:32;92982.97;;;13.53;52.35
11053;BME280;55230;42.602;23.470;2024-02-26T12:52:58;92976.53;;;13.96;51.30
11053;BME280;55230;42.602;23.470;2024-02-26T12:55:24;92982.69;;;14.38;51.36
11053;BME280;55230;42.602;23.470;2024-02-26T12:57:51;92983.88;;;14.23;49.45